Terminal Aerodrome Forecast
Issued by NWS Wilmington, OH

Home | Current Version | Previous Version | Text Only | Print | Product List | Glossary On
Versions: 1 2 3 4 5 6 7 8 9 10 11 12 13 14 15 16 17 18 19 20 21
000
FTUS41 KILN 050533
TAFCMH
TAF
KCMH 050533Z 0506/0606 31006KT P6SM BKN040
     FM050800 31007KT P6SM OVC020
     FM051000 32007KT P6SM OVC006
     FM051400 36010KT P6SM BKN020
     FM051900 36015G21KT P6SM BKN040
     FM060100 35008KT P6SM SCT045=

USA.gov is the U.S. government's official web portal to all federal, state and local government web resources and services.